sensor_id;sensor_type;location;lat;lon;timestamp;pressure;altitude;pressure_sealevel;temperature
85893;BMP280;76433;42.122;23.040;2024-03-17T00:00:55;97597.38;;;8.04
85893;BMP280;76433;42.122;23.040;2024-03-17T00:03:20;97600.88;;;8.01
85893;BMP280;76433;42.122;23.040;2024-03-17T00:05:45;97603.13;;;8.02
85893;BMP280;76433;42.122;23.040;2024-03-17T00:08:11;97591.19;;;7.94
85893;BMP280;76433;42.122;23.040;2024-03-17T00:10:36;97593.66;;;7.89
85893;BMP280;76433;42.122;23.040;2024-03-17T00:13:02;97595.13;;;7.90
85893;BMP280;76433;42.122;23.040;2024-03-17T00:15:27;97602.53;;;7.86
85893;BMP280;76433;42.122;23.040;2024-03-17T00:17:53;97602.63;;;7.82
85893;BMP280;76433;42.122;23.040;2024-03-17T00:20:18;97597.84;;;7.77
85893;BMP280;76433;42.122;23.040;2024-03-17T00:22:47;97602.88;;;7.75
85893;BMP280;76433;42.122;23.040;2024-03-17T00:25:12;97595.81;;;7.68
85893;BMP280;76433;42.122;23.040;2024-03-17T00:27:38;97595.81;;;7.68
85893;BMP280;76433;42.122;23.040;2024-03-17T00:30:06;97598.81;;;7.70
85893;BMP280;76433;42.122;23.040;2024-03-17T00:32:35;97601.25;;;7.78
85893;BMP280;76433;42.122;23.040;2024-03-17T00:35:00;97596.69;;;7.78
85893;BMP280;76433;42.122;23.040;2024-03-17T00:37:26;97588.78;;;7.75
85893;BMP280;76433;42.122;23.040;2024-03-17T00:39:52;97601.47;;;7.83
85893;BMP280;76433;42.122;23.040;2024-03-17T00:42:17;97602.09;;;7.87
85893;BMP280;76433;42.122;23.040;2024-03-17T00:44:43;97588.31;;;7.89
85893;BMP280;76433;42.122;23.040;2024-03-17T00:47:08;97598.19;;;8.01
85893;BMP280;76433;42.122;23.040;2024-03-17T00:49:33;97598.66;;;7.99
85893;BMP280;76433;42.122;23.040;2024-03-17T00:51:59;97597.03;;;8.15
85893;BMP280;76433;42.122;23.040;2024-03-17T00:54:24;97605.25;;;8.20
85893;BMP280;76433;42.122;23.040;2024-03-17T00:56:50;97592.44;;;8.15
85893;BMP280;76433;42.122;23.040;2024-03-17T00:59:16;97604.03;;;8.21
85893;BMP280;76433;42.122;23.040;2024-03-17T01:01:41;97591.25;;;8.16
85893;BMP280;76433;42.122;23.040;2024-03-17T01:04:09;97599.44;;;8.22
85893;BMP280;76433;42.122;23.040;2024-03-17T01:06:34;97589.66;;;8.19
85893;BMP280;76433;42.122;23.040;2024-03-17T01:09:00;97596.34;;;8.23
85893;BMP280;76433;42.122;23.040;2024-03-17T01:11:25;97599.16;;;8.20
85893;BMP280;76433;42.122;23.040;2024-03-17T01:13:50;97603.44;;;8.17
85893;BMP280;76433;42.122;23.040;2024-03-17T01:16:16;97609.53;;;8.18
85893;BMP280;76433;42.122;23.040;2024-03-17T01:18:41;97607.91;;;8.20
85893;BMP280;76433;42.122;23.040;2024-03-17T01:21:08;97614.72;;;8.21
85893;BMP280;76433;42.122;23.040;2024-03-17T01:23:34;97612.38;;;8.23
85893;BMP280;76433;42.122;23.040;2024-03-17T01:25:59;97604.03;;;8.21
85893;BMP280;76433;42.122;23.040;2024-03-17T01:28:24;97602.25;;;8.18
85893;BMP280;76433;42.122;23.040;2024-03-17T01:30:51;97597.44;;;8.13
85893;BMP280;76433;42.122;23.040;2024-03-17T01:33:17;97609.69;;;8.23
85893;BMP280;76433;42.122;23.040;2024-03-17T01:35:42;97604.03;;;8.21
85893;BMP280;76433;42.122;23.040;2024-03-17T01:38:08;97610.66;;;8.29
85893;BMP280;76433;42.122;23.040;2024-03-17T01:40:35;97604.44;;;8.32
85893;BMP280;76433;42.122;23.040;2024-03-17T01:43:01;97601.84;;;8.41
85893;BMP280;76433;42.122;23.040;2024-03-17T01:45:32;97602.47;;;8.46
85893;BMP280;76433;42.122;23.040;2024-03-17T01:48:02;97603.09;;;8.50
85893;BMP280;76433;42.122;23.040;2024-03-17T01:50:37;97595.94;;;8.47
85893;BMP280;76433;42.122;23.040;2024-03-17T01:53:05;97599.13;;;8.54
85893;BMP280;76433;42.122;23.040;2024-03-17T01:55:36;97603.72;;;8.54
85893;BMP280;76433;42.122;23.040;2024-03-17T01:58:03;97596.25;;;8.49
85893;BMP280;76433;42.122;23.040;2024-03-17T02:00:29;97595.03;;;8.40
85893;BMP280;76433;42.122;23.040;2024-03-17T02:02:56;97601.91;;;8.29
85893;BMP280;76433;42.122;23.040;2024-03-17T02:05:22;97606.41;;;8.19
85893;BMP280;76433;42.122;23.040;2024-03-17T02:07:48;97603.13;;;8.15
85893;BMP280;76433;42.122;23.040;2024-03-17T02:10:13;97606.22;;;8.14
85893;BMP280;76433;42.122;23.040;2024-03-17T02:12:39;97607.28;;;8.16
85893;BMP280;76433;42.122;23.040;2024-03-17T02:15:06;97586.78;;;8.13
85893;BMP280;76433;42.122;23.040;2024-03-17T02:17:33;97601.25;;;8.25
85893;BMP280;76433;42.122;23.040;2024-03-17T02:19:59;97601.16;;;8.28
85893;BMP280;76433;42.122;23.040;2024-03-17T02:22:25;97596.13;;;8.30
85893;BMP280;76433;42.122;23.040;2024-03-17T02:24:50;97599.34;;;8.25
85893;BMP280;76433;42.122;23.040;2024-03-17T02:27:16;97594.69;;;8.17
85893;BMP280;76433;42.122;23.040;2024-03-17T02:29:41;97588.28;;;8.14
85893;BMP280;76433;42.122;23.040;2024-03-17T02:32:07;97602.56;;;8.20
85893;BMP280;76433;42.122;23.040;2024-03-17T02:34:36;97605.25;;;8.20
85893;BMP280;76433;42.122;23.040;2024-03-17T02:37:02;97598.69;;;8.21
85893;BMP280;76433;42.122;23.040;2024-03-17T02:39:29;97597.66;;;8.19
85893;BMP280;76433;42.122;23.040;2024-03-17T02:42:05;97587.66;;;8.10
85893;BMP280;76433;42.122;23.040;2024-03-17T02:44:32;97590.00;;;8.08
85893;BMP280;76433;42.122;23.040;2024-03-17T02:46:58;97595.00;;;8.19
85893;BMP280;76433;42.122;23.040;2024-03-17T02:49:28;97597.84;;;8.24
85893;BMP280;76433;42.122;23.040;2024-03-17T02:52:00;97595.19;;;8.24
85893;BMP280;76433;42.122;23.040;2024-03-17T02:54:25;97603.72;;;8.32
85893;BMP280;76433;42.122;23.040;2024-03-17T02:56:51;97588.97;;;8.27
85893;BMP280;76433;42.122;23.040;2024-03-17T02:59:16;97603.47;;;8.39
85893;BMP280;76433;42.122;23.040;2024-03-17T03:01:42;97590.53;;;8.37
85893;BMP280;76433;42.122;23.040;2024-03-17T03:04:08;97590.09;;;8.39
85893;BMP280;76433;42.122;23.040;2024-03-17T03:06:33;97603.09;;;8.50
85893;BMP280;76433;42.122;23.040;2024-03-17T03:08:59;97603.44;;;8.52
85893;BMP280;76433;42.122;23.040;2024-03-17T03:11:24;97590.28;;;8.45
85893;BMP280;76433;42.122;23.040;2024-03-17T03:13:50;97599.28;;;8.51
85893;BMP280;76433;42.122;23.040;2024-03-17T03:16:15;97596.25;;;8.49
85893;BMP280;76433;42.122;23.040;2024-03-17T03:18:41;97602.78;;;8.48
85893;BMP280;76433;42.122;23.040;2024-03-17T03:21:07;97594.75;;;8.48
85893;BMP280;76433;42.122;23.040;2024-03-17T03:23:33;97606.31;;;8.45
85893;BMP280;76433;42.122;23.040;2024-03-17T03:25:59;97605.00;;;8.49
85893;BMP280;76433;42.122;23.040;2024-03-17T03:28:26;97610.91;;;8.44
85893;BMP280;76433;42.122;23.040;2024-03-17T03:30:52;97613.94;;;8.33
85893;BMP280;76433;42.122;23.040;2024-03-17T03:33:18;97599.59;;;8.18
85893;BMP280;76433;42.122;23.040;2024-03-17T03:35:44;97603.19;;;8.24
85893;BMP280;76433;42.122;23.040;2024-03-17T03:38:11;97593.13;;;8.28
85893;BMP280;76433;42.122;23.040;2024-03-17T03:40:36;97608.06;;;8.38
85893;BMP280;76433;42.122;23.040;2024-03-17T03:43:01;97611.03;;;8.40
85893;BMP280;76433;42.122;23.040;2024-03-17T03:45:27;97612.81;;;8.43
85893;BMP280;76433;42.122;23.040;2024-03-17T03:47:53;97615.38;;;8.47
85893;BMP280;76433;42.122;23.040;2024-03-17T03:50:20;97613.88;;;8.46
85893;BMP280;76433;42.122;23.040;2024-03-17T03:52:46;97625.84;;;8.54
85893;BMP280;76433;42.122;23.040;2024-03-17T03:55:12;97623.38;;;8.60
85893;BMP280;76433;42.122;23.040;2024-03-17T03:57:41;97620.28;;;8.61
85893;BMP280;76433;42.122;23.040;2024-03-17T04:00:07;97630.81;;;8.65
85893;BMP280;76433;42.122;23.040;2024-03-17T04:02:40;97618.78;;;8.60
85893;BMP280;76433;42.122;23.040;2024-03-17T04:05:06;97631.56;;;8.65
85893;BMP280;76433;42.122;23.040;2024-03-17T04:07:32;97615.69;;;8.62
85893;BMP280;76433;42.122;23.040;2024-03-17T04:09:58;97631.56;;;8.65
85893;BMP280;76433;42.122;23.040;2024-03-17T04:12:24;97618.47;;;8.58
85893;BMP280;76433;42.122;23.040;2024-03-17T04:14:50;97633.19;;;8.63
85893;BMP280;76433;42.122;23.040;2024-03-17T04:17:21;97640.91;;;8.61
85893;BMP280;76433;42.122;23.040;2024-03-17T04:19:47;97636.53;;;8.54
85893;BMP280;76433;42.122;23.040;2024-03-17T04:22:16;97644.34;;;8.49
85893;BMP280;76433;42.122;23.040;2024-03-17T04:24:46;97636.78;;;8.34
85893;BMP280;76433;42.122;23.040;2024-03-17T04:27:12;97640.13;;;8.26
85893;BMP280;76433;42.122;23.040;2024-03-17T04:29:38;97638.47;;;8.19
85893;BMP280;76433;42.122;23.040;2024-03-17T04:32:05;97654.16;;;8.17
85893;BMP280;76433;42.122;23.040;2024-03-17T04:34:31;97652.56;;;8.07
85893;BMP280;76433;42.122;23.040;2024-03-17T04:36:57;97643.81;;;7.94
85893;BMP280;76433;42.122;23.040;2024-03-17T04:39:23;97652.38;;;7.89
85893;BMP280;76433;42.122;23.040;2024-03-17T04:41:48;97653.31;;;7.82
85893;BMP280;76433;42.122;23.040;2024-03-17T04:44:15;97654.41;;;7.72
85893;BMP280;76433;42.122;23.040;2024-03-17T04:46:40;97656.22;;;7.62
85893;BMP280;76433;42.122;23.040;2024-03-17T04:49:05;97658.09;;;7.49
85893;BMP280;76433;42.122;23.040;2024-03-17T04:51:31;97667.94;;;7.52
85893;BMP280;76433;42.122;23.040;2024-03-17T04:53:58;97663.44;;;7.49
85893;BMP280;76433;42.122;23.040;2024-03-17T04:56:24;97660.88;;;7.46
85893;BMP280;76433;42.122;23.040;2024-03-17T04:58:49;97673.28;;;7.52
85893;BMP280;76433;42.122;23.040;2024-03-17T05:01:14;97661.09;;;7.51
85893;BMP280;76433;42.122;23.040;2024-03-17T05:03:40;97674.56;;;7.60
85893;BMP280;76433;42.122;23.040;2024-03-17T05:06:05;97668.59;;;7.56
85893;BMP280;76433;42.122;23.040;2024-03-17T05:08:33;97667.09;;;7.55
85893;BMP280;76433;42.122;23.040;2024-03-17T05:11:01;97685.47;;;7.66
85893;BMP280;76433;42.122;23.040;2024-03-17T05:13:30;97683.22;;;7.64
85893;BMP280;76433;42.122;23.040;2024-03-17T05:15:55;97678.09;;;7.57
85893;BMP280;76433;42.122;23.040;2024-03-17T05:18:21;97676.13;;;7.45
85893;BMP280;76433;42.122;23.040;2024-03-17T05:20:56;97679.00;;;7.38
85893;BMP280;76433;42.122;23.040;2024-03-17T05:23:22;97690.41;;;7.39
85893;BMP280;76433;42.122;23.040;2024-03-17T05:25:51;97696.59;;;7.35
85893;BMP280;76433;42.122;23.040;2024-03-17T05:28:17;97693.72;;;7.30
85893;BMP280;76433;42.122;23.040;2024-03-17T05:30:42;97690.06;;;7.24
85893;BMP280;76433;42.122;23.040;2024-03-17T05:33:07;97694.47;;;7.30
85893;BMP280;76433;42.122;23.040;2024-03-17T05:35:33;97695.34;;;7.40
85893;BMP280;76433;42.122;23.040;2024-03-17T05:37:58;97690.41;;;7.39
85893;BMP280;76433;42.122;23.040;2024-03-17T05:40:24;97692.44;;;7.47
85893;BMP280;76433;42.122;23.040;2024-03-17T05:42:49;97698.69;;;7.57
85893;BMP280;76433;42.122;23.040;2024-03-17T05:45:15;97685.75;;;7.55
85893;BMP280;76433;42.122;23.040;2024-03-17T05:47:41;97694.66;;;7.65
85893;BMP280;76433;42.122;23.040;2024-03-17T05:50:07;97689.41;;;7.61
85893;BMP280;76433;42.122;23.040;2024-03-17T05:52:32;97681.63;;;7.67
85893;BMP280;76433;42.122;23.040;2024-03-17T05:54:58;97698.50;;;7.77
85893;BMP280;76433;42.122;23.040;2024-03-17T05:57:23;97701.78;;;7.81
85893;BMP280;76433;42.122;23.040;2024-03-17T05:59:49;97704.03;;;7.82
85893;BMP280;76433;42.122;23.040;2024-03-17T06:02:15;97697.75;;;7.89
85893;BMP280;76433;42.122;23.040;2024-03-17T06:04:41;97708.50;;;7.98
85893;BMP280;76433;42.122;23.040;2024-03-17T06:07:06;97698.59;;;7.98
85893;BMP280;76433;42.122;23.040;2024-03-17T06:09:32;97692.63;;;8.07
85893;BMP280;76433;42.122;23.040;2024-03-17T06:11:57;97707.63;;;8.26
85893;BMP280;76433;42.122;23.040;2024-03-17T06:14:22;97710.28;;;8.39
85893;BMP280;76433;42.122;23.040;2024-03-17T06:16:48;97709.19;;;8.49
85893;BMP280;76433;42.122;23.040;2024-03-17T06:19:14;97713.56;;;8.56
85893;BMP280;76433;42.122;23.040;2024-03-17T06:21:40;97707.06;;;8.57
85893;BMP280;76433;42.122;23.040;2024-03-17T06:24:05;97708.72;;;8.63
85893;BMP280;76433;42.122;23.040;2024-03-17T06:26:33;97726.53;;;8.79
85893;BMP280;76433;42.122;23.040;2024-03-17T06:29:01;97720.19;;;8.86
85893;BMP280;76433;42.122;23.040;2024-03-17T06:31:26;97722.94;;;8.95
85893;BMP280;76433;42.122;23.040;2024-03-17T06:33:51;97723.47;;;9.02
85893;BMP280;76433;42.122;23.040;2024-03-17T06:36:17;97705.19;;;9.01
85893;BMP280;76433;42.122;23.040;2024-03-17T06:38:42;97726.56;;;9.23
85893;BMP280;76433;42.122;23.040;2024-03-17T06:41:09;97722.44;;;9.31
85893;BMP280;76433;42.122;23.040;2024-03-17T06:43:35;97714.88;;;9.29
85893;BMP280;76433;42.122;23.040;2024-03-17T06:46:00;97717.59;;;9.38
85893;BMP280;76433;42.122;23.040;2024-03-17T06:48:27;97722.59;;;9.58
85893;BMP280;76433;42.122;23.040;2024-03-17T06:50:54;97722.38;;;9.65
85893;BMP280;76433;42.122;23.040;2024-03-17T06:53:20;97728.22;;;9.82
85893;BMP280;76433;42.122;23.040;2024-03-17T06:55:56;97723.97;;;9.94
85893;BMP280;76433;42.122;23.040;2024-03-17T06:58:22;97720.72;;;9.99
85893;BMP280;76433;42.122;23.040;2024-03-17T07:00:59;97726.84;;;10.08
85893;BMP280;76433;42.122;23.040;2024-03-17T07:03:25;97714.03;;;10.12
85893;BMP280;76433;42.122;23.040;2024-03-17T07:05:55;97732.53;;;10.29
85893;BMP280;76433;42.122;23.040;2024-03-17T07:08:23;97722.53;;;10.29
85893;BMP280;76433;42.122;23.040;2024-03-17T07:10:59;97729.44;;;10.39
85893;BMP280;76433;42.122;23.040;2024-03-17T07:13:25;97734.19;;;10.44
85893;BMP280;76433;42.122;23.040;2024-03-17T07:15:50;97729.16;;;10.46
85893;BMP280;76433;42.122;23.040;2024-03-17T07:18:16;97730.19;;;10.49
85893;BMP280;76433;42.122;23.040;2024-03-17T07:20:41;97719.19;;;10.56
85893;BMP280;76433;42.122;23.040;2024-03-17T07:23:07;97720.38;;;10.55
85893;BMP280;76433;42.122;23.040;2024-03-17T07:25:33;97728.41;;;10.73
85893;BMP280;76433;42.122;23.040;2024-03-17T07:27:58;97715.44;;;10.81
85893;BMP280;76433;42.122;23.040;2024-03-17T07:30:23;97721.09;;;11.01
85893;BMP280;76433;42.122;23.040;2024-03-17T07:32:48;97716.03;;;11.12
85893;BMP280;76433;42.122;23.040;2024-03-17T07:35:14;97711.84;;;11.20
85893;BMP280;76433;42.122;23.040;2024-03-17T07:37:39;97710.03;;;11.26
85893;BMP280;76433;42.122;23.040;2024-03-17T07:40:06;97712.38;;;11.33
85893;BMP280;76433;42.122;23.040;2024-03-17T07:42:36;97701.66;;;11.33
85893;BMP280;76433;42.122;23.040;2024-03-17T07:45:01;97704.91;;;11.47
85893;BMP280;76433;42.122;23.040;2024-03-17T07:47:27;97700.13;;;11.51
85893;BMP280;76433;42.122;23.040;2024-03-17T07:50:01;97697.25;;;11.54
85893;BMP280;76433;42.122;23.040;2024-03-17T07:52:29;97703.63;;;11.66
85893;BMP280;76433;42.122;23.040;2024-03-17T07:54:54;97694.09;;;11.65
85893;BMP280;76433;42.122;23.040;2024-03-17T07:57:20;97690.16;;;11.75
85893;BMP280;76433;42.122;23.040;2024-03-17T07:59:45;97694.16;;;11.89
85893;BMP280;76433;42.122;23.040;2024-03-17T08:02:11;97692.22;;;11.89
85893;BMP280;76433;42.122;23.040;2024-03-17T08:04:37;97682.13;;;11.99
85893;BMP280;76433;42.122;23.040;2024-03-17T08:07:04;97684.94;;;12.04
85893;BMP280;76433;42.122;23.040;2024-03-17T08:09:29;97687.56;;;12.13
85893;BMP280;76433;42.122;23.040;2024-03-17T08:11:55;97685.72;;;12.20
85893;BMP280;76433;42.122;23.040;2024-03-17T08:14:20;97671.16;;;12.11
85893;BMP280;76433;42.122;23.040;2024-03-17T08:16:45;97685.09;;;12.25
85893;BMP280;76433;42.122;23.040;2024-03-17T08:19:11;97676.41;;;12.30
85893;BMP280;76433;42.122;23.040;2024-03-17T08:21:36;97669.88;;;12.22
85893;BMP280;76433;42.122;23.040;2024-03-17T08:24:01;97677.91;;;12.31
85893;BMP280;76433;42.122;23.040;2024-03-17T08:26:28;97670.72;;;12.28
85893;BMP280;76433;42.122;23.040;2024-03-17T08:28:53;97666.91;;;12.20
85893;BMP280;76433;42.122;23.040;2024-03-17T08:31:18;97666.88;;;12.29
85893;BMP280;76433;42.122;23.040;2024-03-17T08:33:44;97670.72;;;12.28
85893;BMP280;76433;42.122;23.040;2024-03-17T08:36:09;97658.34;;;12.30
85893;BMP280;76433;42.122;23.040;2024-03-17T08:38:35;97647.41;;;12.34
85893;BMP280;76433;42.122;23.040;2024-03-17T08:41:05;97652.06;;;12.48
85893;BMP280;76433;42.122;23.040;2024-03-17T08:43:31;97653.09;;;12.65
85893;BMP280;76433;42.122;23.040;2024-03-17T08:46:07;97645.81;;;12.80
85893;BMP280;76433;42.122;23.040;2024-03-17T08:48:34;97646.88;;;13.03
85893;BMP280;76433;42.122;23.040;2024-03-17T08:51:01;97641.69;;;13.14
85893;BMP280;76433;42.122;23.040;2024-03-17T08:53:29;97641.66;;;13.29
85893;BMP280;76433;42.122;23.040;2024-03-17T08:55:55;97622.84;;;13.49
85893;BMP280;76433;42.122;23.040;2024-03-17T08:58:21;97622.00;;;13.78
85893;BMP280;76433;42.122;23.040;2024-03-17T09:00:46;97618.81;;;14.00
85893;BMP280;76433;42.122;23.040;2024-03-17T09:03:12;97631.94;;;14.33
85893;BMP280;76433;42.122;23.040;2024-03-17T09:05:41;97626.69;;;14.50
85893;BMP280;76433;42.122;23.040;2024-03-17T09:08:09;97618.00;;;14.66
85893;BMP280;76433;42.122;23.040;2024-03-17T09:10:43;97630.38;;;14.78
85893;BMP280;76433;42.122;23.040;2024-03-17T09:13:24;97610.59;;;14.92
85893;BMP280;76433;42.122;23.040;2024-03-17T09:15:51;97611.41;;;15.04
85893;BMP280;76433;42.122;23.040;2024-03-17T09:18:17;97614.31;;;15.00
85893;BMP280;76433;42.122;23.040;2024-03-17T09:20:42;97606.03;;;15.09
85893;BMP280;76433;42.122;23.040;2024-03-17T09:23:07;97588.19;;;15.17
85893;BMP280;76433;42.122;23.040;2024-03-17T09:25:33;97609.91;;;15.45
85893;BMP280;76433;42.122;23.040;2024-03-17T09:27:58;97598.72;;;15.58
85893;BMP280;76433;42.122;23.040;2024-03-17T09:30:23;97575.34;;;15.60
85893;BMP280;76433;42.122;23.040;2024-03-17T09:32:49;97589.63;;;15.61
85893;BMP280;76433;42.122;23.040;2024-03-17T09:35:15;97576.63;;;15.71
85893;BMP280;76433;42.122;23.040;2024-03-17T09:37:40;97574.69;;;15.93
85893;BMP280;76433;42.122;23.040;2024-03-17T09:40:13;97570.59;;;16.09
85893;BMP280;76433;42.122;23.040;2024-03-17T09:42:40;97577.22;;;16.36
85893;BMP280;76433;42.122;23.040;2024-03-17T09:45:06;97570.34;;;16.46
85893;BMP280;76433;42.122;23.040;2024-03-17T09:47:32;97568.63;;;16.71
85893;BMP280;76433;42.122;23.040;2024-03-17T09:49:57;97572.03;;;16.82
85893;BMP280;76433;42.122;23.040;2024-03-17T09:52:24;97571.31;;;16.71
85893;BMP280;76433;42.122;23.040;2024-03-17T09:55:01;97568.63;;;16.60
85893;BMP280;76433;42.122;23.040;2024-03-17T09:57:27;97572.06;;;16.66
85893;BMP280;76433;42.122;23.040;2024-03-17T09:59:54;97560.72;;;16.67
85893;BMP280;76433;42.122;23.040;2024-03-17T10:02:20;97568.38;;;16.69
85893;BMP280;76433;42.122;23.040;2024-03-17T10:04:46;97553.09;;;16.77
85893;BMP280;76433;42.122;23.040;2024-03-17T10:07:12;97542.50;;;16.84
85893;BMP280;76433;42.122;23.040;2024-03-17T10:09:37;97565.84;;;17.04
85893;BMP280;76433;42.122;23.040;2024-03-17T10:12:04;97566.59;;;17.05
85893;BMP280;76433;42.122;23.040;2024-03-17T10:14:30;97542.19;;;16.99
85893;BMP280;76433;42.122;23.040;2024-03-17T10:16:56;97563.88;;;16.94
85893;BMP280;76433;42.122;23.040;2024-03-17T10:19:23;97556.50;;;17.00
85893;BMP280;76433;42.122;23.040;2024-03-17T10:21:49;97553.53;;;16.98
85893;BMP280;76433;42.122;23.040;2024-03-17T10:24:20;97545.44;;;16.92
85893;BMP280;76433;42.122;23.040;2024-03-17T10:26:51;97555.75;;;16.88
85893;BMP280;76433;42.122;23.040;2024-03-17T10:32:01;97556.06;;;16.73
85893;BMP280;76433;42.122;23.040;2024-03-17T10:34:29;97553.34;;;16.73
85893;BMP280;76433;42.122;23.040;2024-03-17T10:37:09;97558.72;;;16.96
85893;BMP280;76433;42.122;23.040;2024-03-17T10:39:39;97543.19;;;17.07
85893;BMP280;76433;42.122;23.040;2024-03-17T10:42:07;97561.16;;;17.10
85893;BMP280;76433;42.122;23.040;2024-03-17T10:44:35;97554.22;;;17.20
85893;BMP280;76433;42.122;23.040;2024-03-17T10:47:03;97568.91;;;17.42
85893;BMP280;76433;42.122;23.040;2024-03-17T10:49:31;97555.03;;;17.62
85893;BMP280;76433;42.122;23.040;2024-03-17T10:51:58;97556.34;;;17.85
85893;BMP280;76433;42.122;23.040;2024-03-17T10:54:25;97560.47;;;17.92
85893;BMP280;76433;42.122;23.040;2024-03-17T10:56:55;97553.06;;;17.98
85893;BMP280;76433;42.122;23.040;2024-03-17T10:59:26;97562.53;;;18.15
85893;BMP280;76433;42.122;23.040;2024-03-17T11:01:54;97547.88;;;18.00
85893;BMP280;76433;42.122;23.040;2024-03-17T11:04:20;97554.69;;;17.77
85893;BMP280;76433;42.122;23.040;2024-03-17T11:06:47;97545.91;;;17.59
85893;BMP280;76433;42.122;23.040;2024-03-17T11:09:15;97545.16;;;17.59
85893;BMP280;76433;42.122;23.040;2024-03-17T11:11:41;97534.13;;;17.51
85893;BMP280;76433;42.122;23.040;2024-03-17T11:14:18;97541.03;;;17.52
85893;BMP280;76433;42.122;23.040;2024-03-17T11:16:47;97531.22;;;17.38
85893;BMP280;76433;42.122;23.040;2024-03-17T11:19:16;97536.53;;;17.60
85893;BMP280;76433;42.122;23.040;2024-03-17T11:21:42;97540.16;;;17.74
85893;BMP280;76433;42.122;23.040;2024-03-17T11:24:19;97541.03;;;17.88
85893;BMP280;76433;42.122;23.040;2024-03-17T11:26:45;97530.97;;;17.83
85893;BMP280;76433;42.122;23.040;2024-03-17T11:29:29;97523.97;;;17.93
85893;BMP280;76433;42.122;23.040;2024-03-17T11:31:55;97522.91;;;18.07
85893;BMP280;76433;42.122;23.040;2024-03-17T11:34:37;97525.59;;;18.67
85893;BMP280;76433;42.122;23.040;2024-03-17T11:37:06;97512.50;;;19.27
85893;BMP280;76433;42.122;23.040;2024-03-17T11:39:54;97499.72;;;19.40
85893;BMP280;76433;42.122;23.040;2024-03-17T11:42:24;97509.72;;;19.32
85893;BMP280;76433;42.122;23.040;2024-03-17T11:44:57;97483.72;;;19.18
85893;BMP280;76433;42.122;23.040;2024-03-17T11:47:33;97514.19;;;19.49
85893;BMP280;76433;42.122;23.040;2024-03-17T11:50:02;97511.56;;;19.75
85893;BMP280;76433;42.122;23.040;2024-03-17T11:52:27;97509.78;;;20.09
85893;BMP280;76433;42.122;23.040;2024-03-17T11:54:52;97502.78;;;20.27
85893;BMP280;76433;42.122;23.040;2024-03-17T11:57:23;97499.13;;;20.64
85893;BMP280;76433;42.122;23.040;2024-03-17T11:59:48;97492.00;;;20.87
85893;BMP280;76433;42.122;23.040;2024-03-17T12:02:22;97488.72;;;21.36
85893;BMP280;76433;42.122;23.040;2024-03-17T12:04:49;97490.53;;;21.75
85893;BMP280;76433;42.122;23.040;2024-03-17T12:07:20;97494.13;;;22.47
85893;BMP280;76433;42.122;23.040;2024-03-17T12:09:50;97479.56;;;22.95
85893;BMP280;76433;42.122;23.040;2024-03-17T12:12:26;97486.91;;;23.31
85893;BMP280;76433;42.122;23.040;2024-03-17T12:15:02;97487.25;;;23.12
85893;BMP280;76433;42.122;23.040;2024-03-17T12:17:28;97478.16;;;22.23
85893;BMP280;76433;42.122;23.040;2024-03-17T12:19:54;97492.53;;;21.53
85893;BMP280;76433;42.122;23.040;2024-03-17T12:22:22;97488.63;;;20.94
85893;BMP280;76433;42.122;23.040;2024-03-17T12:24:50;97487.84;;;20.33
85893;BMP280;76433;42.122;23.040;2024-03-17T12:27:23;97495.25;;;20.20
85893;BMP280;76433;42.122;23.040;2024-03-17T12:29:53;97478.16;;;19.93
85893;BMP280;76433;42.122;23.040;2024-03-17T12:34:49;97488.19;;;19.66
85893;BMP280;76433;42.122;23.040;2024-03-17T12:37:17;97489.72;;;19.49
85893;BMP280;76433;42.122;23.040;2024-03-17T12:39:43;97498.09;;;19.51
85893;BMP280;76433;42.122;23.040;2024-03-17T12:42:24;97502.59;;;19.80
85893;BMP280;76433;42.122;23.040;2024-03-17T12:44:57;97484.44;;;20.01
85893;BMP280;76433;42.122;23.040;2024-03-17T12:47:25;97487.22;;;19.51
85893;BMP280;76433;42.122;23.040;2024-03-17T12:49:53;97496.13;;;19.51
85893;BMP280;76433;42.122;23.040;2024-03-17T12:55:07;97494.28;;;19.40
85893;BMP280;76433;42.122;23.040;2024-03-17T12:58:04;97492.38;;;19.35
85893;BMP280;76433;42.122;23.040;2024-03-17T13:01:02;97477.75;;;20.68
85893;BMP280;76433;42.122;23.040;2024-03-17T13:05:59;97483.00;;;20.66
85893;BMP280;76433;42.122;23.040;2024-03-17T13:08:25;97464.78;;;20.61
85893;BMP280;76433;42.122;23.040;2024-03-17T13:10:50;97477.75;;;20.68
85893;BMP280;76433;42.122;23.040;2024-03-17T13:13:16;97474.81;;;20.13
85893;BMP280;76433;42.122;23.040;2024-03-17T13:15:42;97477.03;;;19.70
85893;BMP280;76433;42.122;23.040;2024-03-17T13:18:08;97472.25;;;19.25
85893;BMP280;76433;42.122;23.040;2024-03-17T13:20:34;97483.06;;;19.12
85893;BMP280;76433;42.122;23.040;2024-03-17T13:23:00;97473.00;;;19.07
85893;BMP280;76433;42.122;23.040;2024-03-17T13:25:27;97478.56;;;18.96
85893;BMP280;76433;42.122;23.040;2024-03-17T13:27:55;97484.84;;;18.67
85893;BMP280;76433;42.122;23.040;2024-03-17T13:30:22;97485.84;;;18.39
85893;BMP280;76433;42.122;23.040;2024-03-17T13:32:49;97476.44;;;18.16
85893;BMP280;76433;42.122;23.040;2024-03-17T13:35:21;97499.31;;;17.96
85893;BMP280;76433;42.122;23.040;2024-03-17T13:37:49;97477.69;;;17.85
85893;BMP280;76433;42.122;23.040;2024-03-17T13:40:17;97483.69;;;17.72
85893;BMP280;76433;42.122;23.040;2024-03-17T13:42:48;97480.84;;;17.59
85893;BMP280;76433;42.122;23.040;2024-03-17T13:45:14;97497.13;;;17.59
85893;BMP280;76433;42.122;23.040;2024-03-17T13:47:41;97474.50;;;17.51
85893;BMP280;76433;42.122;23.040;2024-03-17T13:50:08;97484.53;;;17.62
85893;BMP280;76433;42.122;23.040;2024-03-17T13:52:39;97483.25;;;17.68
85893;BMP280;76433;42.122;23.040;2024-03-17T13:55:14;97480.69;;;17.82
85893;BMP280;76433;42.122;23.040;2024-03-17T13:57:39;97451.75;;;17.95
85893;BMP280;76433;42.122;23.040;2024-03-17T14:00:05;97462.44;;;18.12
85893;BMP280;76433;42.122;23.040;2024-03-17T14:02:33;97472.34;;;18.09
85893;BMP280;76433;42.122;23.040;2024-03-17T14:04:58;97472.63;;;18.54
85893;BMP280;76433;42.122;23.040;2024-03-17T14:07:24;97470.34;;;18.58
85893;BMP280;76433;42.122;23.040;2024-03-17T14:09:49;97470.66;;;18.98
85893;BMP280;76433;42.122;23.040;2024-03-17T14:12:15;97470.97;;;20.48